Time;durP1;ratioP1;P1;durP2;ratioP2;P2;SDS_P1;SDS_P2;PMS_P1;PMS_P2;Temp;Humidity;BMP_temperature;BMP_pressure;BME280_temperature;BME280_humidity;BME280_pressure;Samples;Min_cycle;Max_cycle;Signal;HPM_P1;HPM_P2
2023/12/30 00:01:35;;;;;;;0.55;0.55;;;6.30;99.90;;;;;;5065684;28;20051;-74
2023/12/30 00:04:00;;;;;;;0.52;0.52;;;6.30;99.90;;;;;;5065117;28;20068;-74
2023/12/30 00:06:26;;;;;;;0.52;0.52;;;6.30;99.90;;;;;;5057393;28;20655;-74
2023/12/30 00:08:52;;;;;;;31.50;1.90;;;6.20;99.90;;;;;;5051421;28;20057;-75
2023/12/30 00:11:17;;;;;;;0.50;0.50;;;6.20;99.90;;;;;;5050004;28;20508;-74
2023/12/30 00:13:43;;;;;;;0.50;0.50;;;6.20;99.90;;;;;;5056624;28;20098;-74
2023/12/30 00:16:10;;;;;;;1.50;1.40;;;6.20;99.90;;;;;;5058120;28;20033;-74
2023/12/30 00:18:36;;;;;;;0.40;0.40;;;6.10;99.90;;;;;;5052151;28;20138;-74
2023/12/30 00:21:02;;;;;;;0.93;0.93;;;6.10;99.90;;;;;;5052394;28;20114;-74
2023/12/30 00:23:28;;;;;;;1.30;1.05;;;6.10;99.90;;;;;;5066530;28;20045;-74
2023/12/30 00:25:54;;;;;;;0.60;0.60;;;6.00;99.90;;;;;;5051122;28;20521;-75
2023/12/30 00:28:21;;;;;;;0.40;0.40;;;6.00;99.90;;;;;;5057954;28;20056;-74
2023/12/30 00:30:47;;;;;;;0.43;0.43;;;6.00;99.90;;;;;;5062219;28;20122;-74
2023/12/30 00:33:12;;;;;;;1.00;1.00;;;5.90;99.90;;;;;;5048834;28;20126;-74
2023/12/30 00:35:38;;;;;;;1.40;1.30;;;5.80;99.90;;;;;;5063248;28;20055;-74
2023/12/30 00:38:04;;;;;;;1.85;1.25;;;5.90;99.90;;;;;;5057090;28;20052;-75
2023/12/30 00:40:29;;;;;;;0.43;0.43;;;5.90;99.90;;;;;;5060220;28;20045;-74
2023/12/30 00:42:55;;;;;;;1.25;0.70;;;5.80;99.90;;;;;;5047803;28;20170;-74
2023/12/30 00:45:20;;;;;;;0.50;0.50;;;5.80;99.90;;;;;;5049908;28;20122;-74
2023/12/30 00:47:46;;;;;;;0.60;0.60;;;5.80;99.90;;;;;;5056591;28;20049;-74
2023/12/30 00:50:12;;;;;;;0.60;0.60;;;5.80;99.90;;;;;;5054288;28;20113;-74
2023/12/30 00:52:37;;;;;;;1.33;1.23;;;5.70;99.90;;;;;;5060466;28;20053;-74
2023/12/30 00:55:03;;;;;;;0.50;0.50;;;5.70;99.90;;;;;;5057192;28;20047;-74
2023/12/30 00:57:29;;;;;;;0.43;0.43;;;5.70;99.90;;;;;;5046215;28;20057;-75
2023/12/30 00:59:54;;;;;;;0.40;0.40;;;5.70;99.90;;;;;;5048373;28;20052;-75
2023/12/30 01:02:20;;;;;;;0.60;0.60;;;5.70;99.90;;;;;;5056224;28;20116;-74
2023/12/30 01:04:46;;;;;;;0.60;0.60;;;5.70;99.90;;;;;;5062221;28;20131;-74
2023/12/30 01:07:11;;;;;;;0.50;0.50;;;5.70;99.90;;;;;;5050178;28;20053;-74
2023/12/30 01:09:37;;;;;;;0.40;0.40;;;5.60;99.90;;;;;;5030797;28;20045;-74
2023/12/30 01:12:03;;;;;;;0.93;0.93;;;5.60;99.90;;;;;;5055596;28;20194;-74
2023/12/30 01:14:29;;;;;;;0.60;0.60;;;5.60;99.90;;;;;;5052786;28;20056;-74
2023/12/30 01:16:55;;;;;;;0.50;0.50;;;5.60;99.90;;;;;;5060530;28;20052;-74
2023/12/30 01:19:21;;;;;;;0.40;0.40;;;5.50;99.90;;;;;;5046472;28;20052;-75
2023/12/30 01:21:46;;;;;;;0.93;0.93;;;5.60;99.90;;;;;;5061809;28;20401;-74
2023/12/30 01:24:12;;;;;;;3.25;1.20;;;5.50;99.90;;;;;;5049046;28;20049;-74
2023/12/30 01:26:38;;;;;;;0.50;0.50;;;5.50;99.90;;;;;;5052829;28;20052;-74
2023/12/30 01:29:04;;;;;;;0.45;0.45;;;5.50;99.90;;;;;;5052381;28;20049;-75
2023/12/30 01:31:30;;;;;;;0.50;0.50;;;5.50;99.90;;;;;;5052656;28;20151;-74
2023/12/30 01:33:56;;;;;;;0.40;0.40;;;5.50;99.90;;;;;;5054332;28;20155;-74
2023/12/30 01:36:21;;;;;;;0.50;0.50;;;5.40;99.90;;;;;;5056232;28;20041;-74
2023/12/30 01:38:47;;;;;;;0.73;0.73;;;5.40;99.90;;;;;;5050347;28;20080;-74
2023/12/30 01:41:13;;;;;;;0.65;0.65;;;5.40;99.90;;;;;;5054827;28;20041;-74
2023/12/30 01:43:38;;;;;;;0.40;0.40;;;5.40;99.90;;;;;;5060188;28;20438;-74
2023/12/30 01:46:06;;;;;;;0.45;0.45;;;5.40;99.90;;;;;;5053814;28;20053;-74
2023/12/30 01:48:33;;;;;;;0.95;0.65;;;5.40;99.90;;;;;;5057138;28;20717;-74
2023/12/30 01:51:01;;;;;;;0.50;0.50;;;5.40;99.90;;;;;;5046213;28;20068;-74
2023/12/30 01:53:28;;;;;;;0.60;0.60;;;5.40;99.90;;;;;;5049936;28;20093;-74
2023/12/30 01:55:55;;;;;;;0.50;0.50;;;5.40;99.90;;;;;;5061073;28;20045;-74
2023/12/30 01:58:21;;;;;;;1.42;1.35;;;5.40;99.90;;;;;;5052426;28;20044;-74
2023/12/30 02:00:57;;;;;;;0.70;0.70;;;5.40;99.90;;;;;;5054163;28;20119;-74
2023/12/30 02:03:22;;;;;;;0.50;0.50;;;5.40;99.90;;;;;;5060876;28;20116;-74
2023/12/30 02:05:48;;;;;;;0.57;0.57;;;5.40;99.90;;;;;;5068978;28;20139;-74
2023/12/30 02:08:17;;;;;;;1.35;1.25;;;5.40;99.90;;;;;;5062152;28;20056;-74
2023/12/30 02:10:43;;;;;;;0.40;0.40;;;5.30;99.90;;;;;;5062728;28;20083;-74
2023/12/30 02:13:10;;;;;;;0.40;0.40;;;5.40;99.90;;;;;;5067951;28;20140;-74
2023/12/30 02:15:35;;;;;;;0.50;0.50;;;5.40;99.90;;;;;;5057389;28;20044;-74
2023/12/30 02:18:01;;;;;;;1.55;0.77;;;5.30;99.90;;;;;;5054913;28;20126;-74
2023/12/30 02:20:27;;;;;;;0.90;0.90;;;5.30;99.90;;;;;;5055165;28;20135;-74
2023/12/30 02:22:53;;;;;;;0.60;0.60;;;5.40;99.90;;;;;;5063976;28;20041;-74
2023/12/30 02:25:19;;;;;;;0.70;0.70;;;5.30;99.90;;;;;;5053798;28;20347;-74
2023/12/30 02:27:45;;;;;;;0.55;0.55;;;5.30;99.90;;;;;;5050747;28;20435;-74
2023/12/30 02:30:12;;;;;;;0.70;0.70;;;5.40;99.90;;;;;;5057420;28;20057;-75
2023/12/30 02:32:38;;;;;;;0.60;0.60;;;5.40;99.90;;;;;;5057861;28;20099;-74
2023/12/30 02:35:04;;;;;;;0.50;0.50;;;5.40;99.90;;;;;;5062161;28;20045;-75
2023/12/30 02:37:30;;;;;;;1.75;1.42;;;5.50;99.90;;;;;;5050480;28;20052;-74
2023/12/30 02:39:55;;;;;;;0.60;0.60;;;5.40;99.90;;;;;;5054473;28;20049;-74
2023/12/30 02:42:21;;;;;;;0.57;0.57;;;5.50;99.90;;;;;;5059332;28;20444;-75
2023/12/30 02:44:46;;;;;;;0.55;0.55;;;5.40;99.90;;;;;;5056593;28;20055;-74
2023/12/30 02:47:12;;;;;;;0.50;0.50;;;5.40;99.90;;;;;;5052694;28;20439;-74
2023/12/30 02:49:42;;;;;;;0.40;0.40;;;5.40;99.90;;;;;;5054900;28;20048;-74
2023/12/30 02:52:08;;;;;;;0.40;0.40;;;5.40;99.90;;;;;;5053891;28;20045;-74
2023/12/30 02:54:35;;;;;;;0.40;0.40;;;5.40;99.90;;;;;;5048472;28;20052;-75
2023/12/30 02:57:02;;;;;;;0.60;0.60;;;5.40;99.90;;;;;;5054941;28;20045;-75
2023/12/30 02:59:28;;;;;;;0.50;0.50;;;5.40;99.90;;;;;;5065950;28;20049;-75
2023/12/30 03:01:54;;;;;;;0.50;0.50;;;5.40;99.90;;;;;;5054498;28;20167;-75
2023/12/30 03:04:20;;;;;;;0.70;0.70;;;5.40;99.90;;;;;;5060201;28;20490;-75
2023/12/30 03:06:45;;;;;;;0.50;0.50;;;5.30;99.90;;;;;;5051867;28;20123;-74
2023/12/30 03:09:11;;;;;;;0.50;0.50;;;5.40;99.90;;;;;;5053786;28;20090;-74
2023/12/30 03:11:38;;;;;;;0.50;0.50;;;5.40;99.90;;;;;;5051388;28;20052;-75
2023/12/30 03:14:04;;;;;;;0.50;0.50;;;5.40;99.90;;;;;;5057487;28;20420;-74
2023/12/30 03:16:30;;;;;;;0.50;0.50;;;5.40;99.90;;;;;;5051617;28;20044;-75
2023/12/30 03:18:55;;;;;;;7.03;1.23;;;5.40;99.90;;;;;;5046986;28;20060;-74
2023/12/30 03:21:21;;;;;;;0.40;0.40;;;5.30;99.90;;;;;;5058680;28;20115;-74
2023/12/30 03:23:47;;;;;;;0.80;0.80;;;5.30;99.90;;;;;;5057684;28;20140;-75
2023/12/30 03:26:13;;;;;;;0.40;0.40;;;5.30;99.90;;;;;;5066533;28;20060;-74
2023/12/30 03:28:38;;;;;;;0.50;0.50;;;5.40;99.90;;;;;;5058415;28;20053;-74
2023/12/30 03:31:06;;;;;;;0.73;0.73;;;5.40;99.90;;;;;;5055656;28;20048;-73
2023/12/30 03:33:32;;;;;;;0.50;0.50;;;5.40;99.90;;;;;;5053104;28;20534;-74
2023/12/30 03:35:58;;;;;;;2.70;1.05;;;5.40;99.90;;;;;;5054410;28;20060;-74
2023/12/30 03:38:24;;;;;;;0.50;0.50;;;5.40;99.90;;;;;;5059037;28;20055;-74
2023/12/30 03:40:49;;;;;;;0.57;0.57;;;5.40;99.90;;;;;;5065792;28;20045;-74
2023/12/30 03:43:17;;;;;;;0.73;0.73;;;5.40;99.90;;;;;;5059181;28;20041;-73
2023/12/30 03:45:43;;;;;;;0.60;0.60;;;5.40;99.90;;;;;;5057689;28;20686;-74
2023/12/30 03:48:08;;;;;;;0.80;0.80;;;5.40;99.90;;;;;;5066917;28;20047;-73
2023/12/30 03:50:36;;;;;;;0.70;0.70;;;5.40;99.90;;;;;;5062081;28;20048;-74
2023/12/30 03:53:02;;;;;;;0.60;0.60;;;5.50;99.90;;;;;;5062406;28;20720;-74
2023/12/30 03:55:28;;;;;;;0.50;0.50;;;5.40;99.90;;;;;;5059127;28;20119;-74
2023/12/30 03:57:53;;;;;;;0.43;0.43;;;5.40;99.90;;;;;;5052508;28;20583;-74
2023/12/30 04:00:20;;;;;;;0.50;0.50;;;5.40;99.90;;;;;;5039943;28;20413;-74
2023/12/30 04:02:47;;;;;;;0.57;0.55;;;5.30;99.90;;;;;;5067003;28;20501;-74
2023/12/30 04:05:12;;;;;;;0.50;0.50;;;5.30;99.90;;;;;;5058347;28;20087;-74
2023/12/30 04:07:38;;;;;;;0.40;0.40;;;5.30;99.90;;;;;;5063302;28;20145;-74
2023/12/30 04:10:04;;;;;;;0.50;0.50;;;5.30;99.90;;;;;;5052155;28;20762;-74
2023/12/30 04:12:31;;;;;;;0.50;0.50;;;5.30;99.90;;;;;;5043219;28;20101;-74
2023/12/30 04:14:57;;;;;;;0.50;0.50;;;5.30;99.90;;;;;;5062039;28;20124;-74
2023/12/30 04:17:22;;;;;;;0.43;0.43;;;5.30;99.90;;;;;;5052651;28;20125;-74
2023/12/30 04:19:48;;;;;;;0.50;0.50;;;5.30;99.90;;;;;;5055044;28;20055;-74
2023/12/30 04:22:14;;;;;;;5.45;1.13;;;5.40;99.90;;;;;;5051817;28;20051;-74
2023/12/30 04:24:39;;;;;;;0.70;0.70;;;5.40;99.90;;;;;;5065009;28;20048;-73
2023/12/30 04:27:05;;;;;;;0.60;0.60;;;5.30;99.90;;;;;;5051461;28;20078;-74
2023/12/30 04:29:30;;;;;;;0.50;0.50;;;5.30;99.90;;;;;;5054636;28;20084;-74
2023/12/30 04:31:56;;;;;;;0.50;0.50;;;5.30;99.90;;;;;;5046815;28;20055;-74
2023/12/30 04:34:22;;;;;;;0.60;0.60;;;5.20;99.90;;;;;;5057566;28;20049;-74
2023/12/30 04:36:48;;;;;;;0.75;0.75;;;5.20;99.90;;;;;;5053024;28;20446;-74
2023/12/30 04:39:13;;;;;;;0.57;0.57;;;5.20;99.90;;;;;;5052132;28;20051;-74
2023/12/30 04:41:40;;;;;;;0.40;0.40;;;5.20;99.90;;;;;;5062271;28;20102;-73
2023/12/30 04:44:06;;;;;;;0.50;0.50;;;5.10;99.90;;;;;;5049683;28;20128;-74
2023/12/30 04:46:31;;;;;;;0.63;0.50;;;5.10;99.90;;;;;;5053850;28;20124;-74
2023/12/30 04:49:01;;;;;;;0.35;0.35;;;5.10;99.90;;;;;;5056136;28;20059;-75
2023/12/30 04:51:27;;;;;;;0.50;0.50;;;5.10;99.90;;;;;;5049819;28;20056;-74
2023/12/30 04:53:52;;;;;;;0.85;0.85;;;5.10;99.90;;;;;;5052680;28;20036;-74
2023/12/30 04:56:18;;;;;;;1.05;0.75;;;5.10;99.90;;;;;;5051483;28;20047;-74
2023/12/30 04:58:44;;;;;;;1.00;0.85;;;5.10;99.90;;;;;;5053719;28;20049;-74
2023/12/30 05:01:11;;;;;;;0.38;0.38;;;5.10;99.90;;;;;;5046650;28;20049;-75
2023/12/30 05:03:40;;;;;;;0.68;0.68;;;5.10;99.90;;;;;;5063841;28;20057;-74
2023/12/30 05:06:05;;;;;;;0.45;0.45;;;5.10;99.90;;;;;;5056943;28;20778;-74
2023/12/30 05:08:32;;;;;;;0.75;0.75;;;5.10;99.90;;;;;;5051247;28;20094;-74
2023/12/30 05:10:58;;;;;;;0.65;0.65;;;5.10;99.90;;;;;;5054777;28;20704;-74
2023/12/30 05:13:23;;;;;;;0.47;0.47;;;5.10;99.90;;;;;;5055679;28;20036;-74
2023/12/30 05:15:49;;;;;;;0.70;0.70;;;5.00;99.90;;;;;;5057854;28;20620;-74
2023/12/30 05:18:16;;;;;;;0.50;0.50;;;5.00;99.90;;;;;;5049325;28;20045;-74
2023/12/30 05:20:41;;;;;;;0.40;0.40;;;5.00;99.90;;;;;;5053356;28;20087;-74
2023/12/30 05:23:07;;;;;;;0.40;0.40;;;5.00;99.90;;;;;;5053651;28;20049;-74
2023/12/30 05:25:33;;;;;;;0.70;0.70;;;5.00;99.90;;;;;;5059216;28;20131;-74
2023/12/30 05:27:58;;;;;;;0.65;0.65;;;5.00;99.90;;;;;;5052721;28;20049;-73
2023/12/30 05:30:24;;;;;;;0.40;0.40;;;4.90;99.90;;;;;;5050277;28;20128;-73
2023/12/30 05:32:50;;;;;;;0.57;0.57;;;4.90;99.90;;;;;;5045627;28;20079;-74
2023/12/30 05:35:15;;;;;;;0.98;0.80;;;4.90;99.90;;;;;;5063364;28;20060;-75
2023/12/30 05:37:41;;;;;;;0.47;0.47;;;4.80;99.90;;;;;;5052247;28;20622;-74
2023/12/30 05:40:09;;;;;;;0.40;0.40;;;4.80;99.90;;;;;;5048628;28;20467;-74
2023/12/30 05:42:36;;;;;;;0.63;0.63;;;4.80;99.90;;;;;;5049931;28;20123;-74
2023/12/30 05:45:01;;;;;;;0.90;0.90;;;4.80;99.90;;;;;;5055435;28;20478;-74
2023/12/30 05:47:27;;;;;;;0.98;0.98;;;4.80;99.90;;;;;;5056973;28;20151;-74
2023/12/30 05:49:52;;;;;;;0.60;0.60;;;4.80;99.90;;;;;;5059638;28;20055;-75
2023/12/30 05:52:18;;;;;;;0.65;0.65;;;4.80;99.90;;;;;;5048060;28;20124;-74
2023/12/30 05:54:45;;;;;;;0.52;0.52;;;4.80;99.90;;;;;;5047636;28;20131;-74
2023/12/30 05:57:10;;;;;;;1.98;0.40;;;4.80;99.90;;;;;;5048538;28;20126;-74
2023/12/30 05:59:36;;;;;;;0.40;0.40;;;4.80;99.90;;;;;;5052201;28;20140;-74
2023/12/30 06:02:02;;;;;;;0.57;0.57;;;4.80;99.90;;;;;;5056607;28;20100;-74
2023/12/30 06:04:28;;;;;;;1.05;1.05;;;4.80;99.90;;;;;;5055726;28;20052;-74
2023/12/30 06:06:55;;;;;;;0.50;0.50;;;4.70;99.90;;;;;;5047964;28;20049;-74
2023/12/30 06:09:20;;;;;;;0.40;0.40;;;4.70;99.90;;;;;;5052763;28;20514;-74
2023/12/30 06:11:46;;;;;;;0.40;0.40;;;4.60;99.90;;;;;;5049357;28;20055;-74
2023/12/30 06:14:11;;;;;;;0.50;0.50;;;4.60;99.90;;;;;;5054015;28;20044;-74
2023/12/30 06:16:37;;;;;;;0.40;0.40;;;4.60;99.90;;;;;;5048450;28;20041;-74
2023/12/30 06:19:03;;;;;;;0.50;0.50;;;4.60;99.90;;;;;;5060289;28;20370;-74
2023/12/30 06:21:28;;;;;;;0.40;0.40;;;4.50;99.90;;;;;;5062242;28;20123;-74
2023/12/30 06:23:54;;;;;;;0.50;0.50;;;4.50;99.90;;;;;;5054540;28;20052;-74
2023/12/30 06:26:19;;;;;;;0.50;0.50;;;4.50;99.90;;;;;;5047010;28;20124;-74
2023/12/30 06:28:45;;;;;;;0.43;0.43;;;4.40;99.90;;;;;;5048408;28;20060;-74
2023/12/30 06:31:11;;;;;;;0.40;0.40;;;4.40;99.90;;;;;;5052732;28;20698;-74
2023/12/30 06:33:36;;;;;;;0.52;0.52;;;4.40;99.90;;;;;;5058299;28;20083;-74
2023/12/30 06:36:02;;;;;;;0.70;0.70;;;4.40;99.90;;;;;;5055466;28;20048;-74
2023/12/30 06:38:27;;;;;;;0.40;0.40;;;4.30;99.90;;;;;;5049290;28;20041;-74
2023/12/30 06:40:53;;;;;;;0.55;0.50;;;4.30;99.90;;;;;;5047740;28;20041;-74
2023/12/30 06:43:19;;;;;;;0.38;0.38;;;4.30;99.90;;;;;;5055792;28;20045;-74
2023/12/30 06:45:44;;;;;;;0.57;0.57;;;4.30;99.90;;;;;;5057704;28;20049;-74
2023/12/30 06:48:10;;;;;;;0.50;0.50;;;4.20;99.90;;;;;;5056731;28;20063;-74
2023/12/30 06:50:35;;;;;;;0.40;0.40;;;4.20;99.90;;;;;;5056872;28;20049;-74
2023/12/30 06:53:01;;;;;;;0.40;0.40;;;4.20;99.90;;;;;;5066581;28;20048;-74
2023/12/30 06:55:27;;;;;;;0.88;0.88;;;4.20;99.90;;;;;;5064953;28;20037;-74
2023/12/30 06:57:53;;;;;;;0.45;0.45;;;4.20;99.90;;;;;;5064147;28;20106;-74
2023/12/30 07:00:19;;;;;;;0.70;0.70;;;4.20;99.90;;;;;;5057858;28;20045;-74
2023/12/30 07:02:45;;;;;;;0.57;0.57;;;4.20;99.90;;;;;;5058190;28;20041;-74
2023/12/30 07:05:11;;;;;;;0.40;0.40;;;4.20;99.90;;;;;;5050504;28;20124;-74
2023/12/30 07:07:37;;;;;;;0.80;0.80;;;4.20;99.90;;;;;;5053691;28;20048;-74
2023/12/30 07:10:07;;;;;;;0.60;0.60;;;4.20;99.90;;;;;;5062799;28;20098;-74
2023/12/30 07:12:32;;;;;;;0.60;0.60;;;4.20;99.90;;;;;;5060745;28;20062;-74
2023/12/30 07:14:59;;;;;;;0.50;0.50;;;4.20;99.90;;;;;;5051465;28;20049;-74
2023/12/30 07:17:25;;;;;;;0.50;0.50;;;4.20;99.90;;;;;;5060137;28;20052;-74
2023/12/30 07:19:51;;;;;;;2.50;1.13;;;4.20;99.90;;;;;;5049985;28;20056;-74
2023/12/30 07:22:19;;;;;;;3.60;1.10;;;4.20;99.90;;;;;;5062017;28;20040;-74
2023/12/30 07:24:45;;;;;;;0.55;0.55;;;4.20;99.90;;;;;;5052036;28;20095;-74
2023/12/30 07:27:11;;;;;;;0.50;0.50;;;4.20;99.90;;;;;;5055099;28;20405;-75
2023/12/30 07:29:37;;;;;;;0.50;0.50;;;4.20;99.90;;;;;;5035339;28;20053;-74
2023/12/30 07:32:03;;;;;;;0.60;0.60;;;4.20;99.90;;;;;;5048356;28;20115;-74
2023/12/30 07:34:28;;;;;;;0.52;0.52;;;4.20;99.90;;;;;;5051522;28;20051;-74
2023/12/30 07:36:56;;;;;;;0.40;0.40;;;4.10;99.90;;;;;;5053516;28;20053;-74
2023/12/30 07:39:22;;;;;;;0.60;0.60;;;4.10;99.90;;;;;;5053400;28;20070;-74
2023/12/30 07:41:47;;;;;;;0.65;0.65;;;4.10;99.90;;;;;;5058132;28;20048;-74
2023/12/30 07:44:13;;;;;;;0.50;0.50;;;4.10;99.90;;;;;;5055531;28;20599;-74
2023/12/30 07:46:39;;;;;;;0.40;0.40;;;4.10;99.90;;;;;;5055174;28;20402;-74
2023/12/30 07:49:04;;;;;;;0.43;0.43;;;4.20;99.90;;;;;;5046385;28;20130;-74
2023/12/30 07:51:30;;;;;;;0.57;0.57;;;4.20;99.90;;;;;;5052725;28;20053;-74
2023/12/30 07:53:55;;;;;;;0.47;0.47;;;4.20;99.90;;;;;;5051531;28;20565;-75
2023/12/30 07:56:21;;;;;;;0.40;0.40;;;4.20;99.90;;;;;;5048467;28;20051;-74
2023/12/30 07:58:46;;;;;;;0.50;0.50;;;4.20;99.90;;;;;;5055774;28;20055;-74
2023/12/30 08:01:12;;;;;;;0.50;0.50;;;4.20;99.90;;;;;;5050799;28;20047;-74
2023/12/30 08:03:38;;;;;;;0.40;0.40;;;4.20;99.90;;;;;;5051082;28;20043;-74
2023/12/30 08:06:03;;;;;;;0.50;0.50;;;4.20;99.90;;;;;;5054547;28;20041;-74
2023/12/30 08:08:31;;;;;;;0.40;0.40;;;4.20;99.90;;;;;;5054673;28;20125;-74
2023/12/30 08:10:57;;;;;;;0.50;0.50;;;4.20;99.90;;;;;;5053084;28;20048;-74
2023/12/30 08:13:22;;;;;;;0.70;0.70;;;4.20;99.90;;;;;;5057469;28;20041;-74
2023/12/30 08:15:48;;;;;;;0.50;0.50;;;4.20;99.90;;;;;;5060703;28;20211;-74
2023/12/30 08:18:14;;;;;;;0.50;0.50;;;4.20;99.90;;;;;;5066985;28;20127;-75
2023/12/30 08:20:39;;;;;;;0.50;0.50;;;4.20;99.90;;;;;;5059213;28;20055;-73
2023/12/30 08:23:05;;;;;;;0.52;0.52;;;4.20;99.90;;;;;;5059407;28;20075;-74
2023/12/30 08:25:31;;;;;;;0.60;0.60;;;4.20;99.90;;;;;;5051751;28;20051;-74
2023/12/30 08:27:56;;;;;;;0.47;0.47;;;4.20;99.90;;;;;;5059077;28;20447;-74
2023/12/30 08:30:22;;;;;;;1.38;1.05;;;4.20;99.90;;;;;;5046854;28;20033;-74
2023/12/30 08:32:49;;;;;;;0.85;0.80;;;4.30;99.90;;;;;;5057901;28;20135;-74
2023/12/30 08:35:15;;;;;;;0.50;0.50;;;4.30;99.90;;;;;;5056716;28;20045;-74
2023/12/30 08:37:40;;;;;;;0.50;0.50;;;4.30;99.90;;;;;;5055096;28;20070;-74
2023/12/30 08:40:09;;;;;;;0.50;0.50;;;4.30;99.90;;;;;;5054363;28;20048;-74
2023/12/30 08:42:35;;;;;;;0.75;0.75;;;4.40;99.90;;;;;;5054597;28;20101;-74
2023/12/30 08:45:04;;;;;;;0.40;0.40;;;4.40;99.90;;;;;;5054563;28;20044;-74
2023/12/30 08:47:33;;;;;;;0.50;0.50;;;4.50;99.90;;;;;;5051024;28;20049;-74
2023/12/30 08:49:59;;;;;;;0.50;0.50;;;4.50;99.90;;;;;;5057357;28;20059;-74
2023/12/30 08:52:24;;;;;;;0.50;0.50;;;4.50;99.90;;;;;;5061803;28;20045;-74
2023/12/30 08:54:50;;;;;;;0.60;0.60;;;4.60;99.90;;;;;;5065424;28;20061;-74
2023/12/30 08:57:16;;;;;;;0.50;0.50;;;4.70;99.90;;;;;;5048008;28;20747;-74
2023/12/30 08:59:41;;;;;;;1.85;1.23;;;4.70;99.90;;;;;;5056578;28;20067;-74
2023/12/30 09:02:08;;;;;;;1.00;0.90;;;4.80;99.90;;;;;;5047330;28;20127;-74
2023/12/30 09:04:33;;;;;;;0.50;0.50;;;4.80;99.90;;;;;;5057735;28;20049;-74
2023/12/30 09:06:59;;;;;;;0.50;0.50;;;4.90;99.90;;;;;;5064085;28;20063;-74
2023/12/30 09:09:25;;;;;;;1.02;1.02;;;5.00;99.90;;;;;;5064947;28;20048;-74
2023/12/30 09:11:51;;;;;;;0.50;0.50;;;5.00;99.90;;;;;;5064991;28;20041;-74
2023/12/30 09:14:16;;;;;;;0.52;0.52;;;5.10;99.90;;;;;;5057048;28;20516;-74
2023/12/30 09:16:42;;;;;;;0.50;0.50;;;5.20;99.90;;;;;;5054492;28;20110;-74
2023/12/30 09:19:08;;;;;;;0.60;0.60;;;5.20;99.90;;;;;;5049722;28;20041;-75
2023/12/30 09:21:34;;;;;;;0.60;0.60;;;5.30;99.90;;;;;;5043916;28;20048;-74
2023/12/30 09:23:59;;;;;;;0.70;0.63;;;5.30;99.90;;;;;;5047554;28;20106;-74
2023/12/30 09:26:25;;;;;;;1.65;0.68;;;5.30;99.90;;;;;;5044577;28;20048;-74
2023/12/30 09:28:52;;;;;;;0.70;0.70;;;5.40;99.90;;;;;;5045388;28;20517;-74
2023/12/30 09:31:20;;;;;;;0.40;0.40;;;5.50;99.90;;;;;;5054584;28;20033;-74
2023/12/30 09:33:49;;;;;;;0.60;0.60;;;5.50;99.90;;;;;;5049860;28;20052;-74
2023/12/30 09:36:17;;;;;;;0.52;0.52;;;5.50;99.90;;;;;;5029475;28;20406;-74
2023/12/30 09:38:44;;;;;;;0.40;0.40;;;5.60;99.90;;;;;;5049709;28;20052;-74
2023/12/30 09:41:09;;;;;;;0.50;0.50;;;5.60;99.90;;;;;;5048493;28;20457;-74
2023/12/30 09:43:37;;;;;;;0.40;0.40;;;5.60;99.90;;;;;;5057141;28;20044;-74
2023/12/30 09:46:03;;;;;;;0.60;0.60;;;5.60;99.90;;;;;;5059685;28;20625;-74
2023/12/30 09:48:30;;;;;;;0.40;0.40;;;5.70;99.90;;;;;;5057545;28;20072;-74
2023/12/30 09:50:56;;;;;;;0.50;0.50;;;5.70;99.90;;;;;;5052106;28;20041;-74
2023/12/30 09:53:24;;;;;;;0.50;0.50;;;5.70;99.90;;;;;;5046919;28;20037;-74
2023/12/30 09:55:50;;;;;;;0.50;0.50;;;5.80;99.90;;;;;;5061677;28;20139;-74
2023/12/30 09:58:17;;;;;;;0.50;0.50;;;5.80;99.90;;;;;;5061194;28;20064;-74
2023/12/30 10:00:43;;;;;;;0.50;0.50;;;5.80;99.90;;;;;;5063932;28;20032;-74
2023/12/30 10:03:09;;;;;;;0.43;0.43;;;5.90;99.90;;;;;;5055790;28;20121;-74
2023/12/30 10:05:35;;;;;;;0.65;0.65;;;5.90;99.90;;;;;;5056202;28;20136;-74
2023/12/30 10:08:05;;;;;;;0.50;0.50;;;5.90;99.90;;;;;;5050205;28;20143;-74
2023/12/30 10:10:43;;;;;;;0.50;0.50;;;6.00;99.90;;;;;;5052006;28;20408;-74
2023/12/30 10:13:10;;;;;;;0.55;0.55;;;6.00;99.90;;;;;;5047186;28;20052;-74
2023/12/30 10:15:35;;;;;;;0.50;0.50;;;6.10;99.90;;;;;;5044722;28;20135;-74
2023/12/30 10:18:03;;;;;;;0.47;0.47;;;6.10;99.90;;;;;;5044707;28;20159;-74
2023/12/30 10:20:29;;;;;;;0.50;0.50;;;6.10;99.90;;;;;;5030222;28;20040;-74
2023/12/30 10:22:56;;;;;;;0.68;0.68;;;6.20;99.90;;;;;;5056123;28;20056;-74
2023/12/30 10:25:21;;;;;;;0.60;0.60;;;6.20;99.90;;;;;;5052989;28;20044;-74
2023/12/30 10:27:48;;;;;;;0.32;0.32;;;6.20;99.90;;;;;;5051161;28;20078;-74
2023/12/30 10:30:20;;;;;;;0.60;0.60;;;6.30;99.90;;;;;;5059477;28;20560;-74
2023/12/30 10:32:46;;;;;;;0.60;0.60;;;6.30;99.90;;;;;;5054037;28;20048;-74
2023/12/30 10:35:13;;;;;;;0.85;0.70;;;6.30;99.90;;;;;;5061365;28;20037;-74
2023/12/30 10:37:40;;;;;;;1.98;0.93;;;6.40;99.90;;;;;;5061142;28;20405;-74
2023/12/30 10:40:09;;;;;;;1.05;1.05;;;6.40;99.90;;;;;;5048829;28;20084;-74
2023/12/30 10:42:36;;;;;;;2.38;0.85;;;6.40;99.90;;;;;;5055931;28;20822;-74
2023/12/30 10:45:01;;;;;;;1.38;1.08;;;6.40;99.90;;;;;;5064412;28;20059;-74
2023/12/30 10:47:28;;;;;;;0.43;0.43;;;6.50;99.90;;;;;;5061268;28;20040;-74
2023/12/30 10:50:04;;;;;;;0.52;0.52;;;6.50;99.90;;;;;;5062721;28;20490;-74
2023/12/30 10:52:33;;;;;;;0.80;0.80;;;6.50;99.90;;;;;;5068125;28;20052;-74
2023/12/30 10:55:08;;;;;;;0.77;0.77;;;6.60;99.90;;;;;;5056687;28;20542;-74
2023/12/30 10:57:37;;;;;;;2.58;2.35;;;6.60;99.90;;;;;;5063837;28;20048;-74
2023/12/30 11:00:09;;;;;;;1.10;1.10;;;6.60;99.90;;;;;;5059640;28;20052;-74
2023/12/30 11:02:39;;;;;;;2.20;1.52;;;6.70;99.90;;;;;;5049963;28;20171;-74
2023/12/30 11:05:11;;;;;;;0.65;0.65;;;6.70;99.90;;;;;;5058151;28;20040;-74
2023/12/30 11:07:37;;;;;;;1.30;1.20;;;6.80;99.90;;;;;;5055947;28;20127;-74
2023/12/30 11:10:15;;;;;;;2.42;2.00;;;6.80;99.90;;;;;;5048658;28;20049;-74
2023/12/30 11:12:41;;;;;;;0.90;0.90;;;6.90;99.90;;;;;;5061221;28;20064;-73
2023/12/30 11:15:25;;;;;;;1.00;1.00;;;7.00;99.90;;;;;;5049009;28;20407;-74
2023/12/30 11:17:51;;;;;;;2.33;2.13;;;7.10;99.90;;;;;;5055524;28;20056;-74
2023/12/30 11:20:32;;;;;;;1.20;1.10;;;7.20;99.90;;;;;;5052841;28;20048;-74
2023/12/30 11:23:04;;;;;;;4.75;1.83;;;7.20;99.90;;;;;;5052622;28;20045;-74
2023/12/30 11:25:37;;;;;;;0.70;0.70;;;7.30;99.90;;;;;;5053307;28;20051;-74
2023/12/30 11:28:13;;;;;;;1.05;0.95;;;7.40;99.90;;;;;;5056194;28;20080;-74
2023/12/30 11:30:40;;;;;;;1.25;1.17;;;7.50;99.90;;;;;;5067464;28;20051;-74
2023/12/30 11:33:07;;;;;;;2.35;1.38;;;7.50;99.90;;;;;;5058840;28;20048;-74
2023/12/30 11:35:33;;;;;;;1.17;1.05;;;7.60;99.90;;;;;;5047926;28;20077;-74
2023/12/30 11:38:04;;;;;;;2.30;1.35;;;7.60;99.90;;;;;;5061935;28;20099;-74
2023/12/30 11:40:31;;;;;;;0.85;0.85;;;7.70;99.90;;;;;;5057069;28;20052;-74
2023/12/30 11:42:56;;;;;;;1.48;1.38;;;7.70;99.90;;;;;;5051300;28;20049;-74
2023/12/30 11:45:22;;;;;;;1.27;1.27;;;7.80;99.90;;;;;;5056016;28;20098;-74
2023/12/30 11:47:47;;;;;;;4.57;1.65;;;7.80;99.90;;;;;;5056766;28;20102;-74
2023/12/30 11:50:14;;;;;;;0.50;0.50;;;7.90;99.90;;;;;;5061954;28;20048;-74
2023/12/30 11:52:49;;;;;;;2.90;1.30;;;7.90;99.90;;;;;;5062891;28;20044;-74
2023/12/30 11:55:15;;;;;;;0.98;0.95;;;7.90;99.90;;;;;;5057669;28;20499;-74
2023/12/30 11:57:41;;;;;;;1.25;1.00;;;7.90;99.90;;;;;;5051221;28;20049;-74
2023/12/30 12:00:07;;;;;;;1.67;1.58;;;7.90;99.90;;;;;;5052178;28;20041;-74
2023/12/30 12:02:33;;;;;;;2.67;1.33;;;7.90;99.90;;;;;;5054115;28;20122;-74
2023/12/30 12:04:59;;;;;;;0.30;0.30;;;7.90;99.90;;;;;;5058505;28;20080;-73
2023/12/30 12:07:24;;;;;;;0.43;0.43;;;7.90;99.90;;;;;;5066233;28;20052;-74
2023/12/30 12:09:50;;;;;;;1.25;1.08;;;7.90;99.90;;;;;;5060763;28;20044;-74
2023/12/30 12:12:22;;;;;;;0.60;0.60;;;7.90;99.90;;;;;;5063213;28;20059;-74
2023/12/30 12:14:52;;;;;;;0.95;0.70;;;7.90;99.90;;;;;;5064662;28;20173;-74
2023/12/30 12:17:19;;;;;;;0.88;0.85;;;7.80;99.90;;;;;;5053646;28;20052;-74
2023/12/30 12:19:47;;;;;;;0.98;0.75;;;7.80;99.90;;;;;;5055418;28;20047;-74
2023/12/30 12:22:15;;;;;;;0.50;0.50;;;7.80;99.90;;;;;;5061036;28;20059;-74
2023/12/30 12:24:42;;;;;;;0.60;0.60;;;7.80;99.90;;;;;;5052279;28;20295;-74
2023/12/30 12:27:08;;;;;;;0.50;0.50;;;7.80;99.90;;;;;;5055437;28;20131;-74
2023/12/30 12:29:44;;;;;;;1.20;0.90;;;7.80;99.90;;;;;;5050644;28;20553;-74
2023/12/30 12:32:13;;;;;;;0.60;0.60;;;7.80;99.90;;;;;;5045796;28;20402;-74
2023/12/30 12:34:41;;;;;;;6.85;1.70;;;7.80;99.90;;;;;;5050309;28;20079;-74
2023/12/30 12:37:08;;;;;;;1.20;0.93;;;7.80;99.90;;;;;;5055166;28;20796;-73
2023/12/30 12:39:33;;;;;;;0.63;0.63;;;7.80;99.90;;;;;;5054226;28;20055;-74
2023/12/30 12:41:59;;;;;;;0.43;0.43;;;7.80;99.90;;;;;;5048470;28;20045;-73
2023/12/30 12:44:24;;;;;;;0.50;0.50;;;7.80;99.90;;;;;;5049776;28;20048;-74
2023/12/30 12:46:50;;;;;;;0.88;0.88;;;7.80;99.90;;;;;;5053208;28;20045;-74
2023/12/30 12:49:19;;;;;;;1.65;1.13;;;7.80;99.90;;;;;;5056670;28;20508;-74
2023/12/30 12:51:45;;;;;;;;;;;7.80;99.90;;;;;;5064155;28;20082;-74
2023/12/30 12:54:11;;;;;;;2.33;1.42;;;7.80;99.90;;;;;;5059585;28;19981;-74